Sv.knyaz Vladimir — UBKI2 — position and weather

sailwx.info

Track history (hours):
 
Tides and Currents Weather Stations Pressure Air Temp Water Temp Dewpoint Dewpoint Depression Visibility Wind Speed Wind Dir Waves Ship Positions

Sv.knyaz Vladimir

Last reported at 2016-Aug-25 12:33 UTC. Time now 2016-Aug-25 13:17 UTC.
Position N 45°06' E 036°34'.

Length 128 m; draft 3.8 m.

Type: Cargo ship. MMSI: 273350360.

Date/timePositionNaut miles runAvg speedWind from/ knotsBaromVisibWave heightAir tempDewpointWater temp
2016-Aug-25 12:33N 45°06' E 036°34'0 0.0
2016-Aug-25 11:24N 45°06' E 036°34'0 0.0
2016-Aug-25 10:26N 45°06' E 036°34'1 0.5
2016-Aug-25 09:04N 45°06' E 036°33'0 0.0
2016-Aug-25 08:28N 45°06' E 036°33'1 0.1
2016-Aug-25 00:26N 45°07' E 036°33'6 6.8
2016-Aug-24 23:33N 45°12' E 036°28'7 6.5
2016-Aug-24 22:33N 45°18' E 036°29'6 6.4
2016-Aug-24 21:34N 45°21' E 036°38'7 6.5
2016-Aug-24 20:33N 45°27' E 036°42'3 2.8
2016-Aug-24 19:33N 45°29' E 036°40'  
2016-Aug-20 23:26N 45°52' E 036°60'7 7.7
2016-Aug-20 22:32N 45°46' E 036°56'8 7.7
2016-Aug-20 21:32N 45°38' E 036°52'8 7.7
2016-Aug-20 20:33N 45°32' E 036°46'7 7.5
2016-Aug-20 19:33N 45°25' E 036°41'6 6.4
2016-Aug-20 18:33N 45°20' E 036°36'6 6.3
2016-Aug-20 17:33N 45°17' E 036°29'6 5.5
2016-Aug-20 16:26N 45°10' E 036°30'3 2.2
2016-Aug-20 15:17N 45°10' E 036°33'0 0.0
2016-Aug-20 14:32N 45°10' E 036°33'0 0.0
2016-Aug-20 13:33N 45°10' E 036°33'0 0.0
2016-Aug-20 12:33N 45°10' E 036°33'0 0.0
2016-Aug-20 11:33N 45°10' E 036°33'0 0.0
2016-Aug-20 10:33N 45°10' E 036°33'0 0.0
2016-Aug-20 09:33N 45°10' E 036°33'0 0.0
2016-Aug-20 08:32N 45°10' E 036°33'0 0.0
2016-Aug-20 07:33N 45°10' E 036°33'0 0.0
2016-Aug-20 06:33N 45°10' E 036°33'0 0.1
2016-Aug-20 05:33N 45°10' E 036°33'0 0.0
2016-Aug-20 04:33N 45°10' E 036°33'0 0.0
2016-Aug-20 03:33N 45°10' E 036°33'0 0.0
2016-Aug-20 02:33N 45°10' E 036°33'0 0.0
2016-Aug-20 01:33N 45°10' E 036°33'0 0.0
2016-Aug-20 00:33N 45°10' E 036°33'0 0.0
2016-Aug-19 23:32N 45°10' E 036°33'0 0.0
2016-Aug-19 22:33N 45°10' E 036°33'0 0.0
2016-Aug-19 21:33N 45°10' E 036°33'0 0.0
2016-Aug-19 20:25N 45°10' E 036°33'0 0.0
2016-Aug-19 19:29N 45°10' E 036°33'0 0.0
2016-Aug-19 18:33N 45°10' E 036°33'0 0.0
2016-Aug-19 17:33N 45°10' E 036°33'0 0.0
2016-Aug-19 16:29N 45°10' E 036°33'4 4.5
2016-Aug-19 15:32N 45°12' E 036°28'7 6.7
2016-Aug-19 14:33N 45°18' E 036°29'7 7.1
2016-Aug-19 13:33N 45°21' E 036°38'6 6.4
2016-Aug-19 12:33N 45°27' E 036°42'8 7.9
2016-Aug-19 11:33N 45°34' E 036°46'  
Track history (hours):
 
Tides and Currents Weather Stations Pressure Air Temp Water Temp Dewpoint Dewpoint Depression Visibility Wind Speed Wind Dir Waves Ship Positions

Sv.knyaz Vladimir

Last reported at 2016-Aug-25 12:33 UTC. Time now 2016-Aug-25 13:17 UTC.
Position N 45°06' E 036°34'.

Length 128 m; draft 3.8 m.

Type: Cargo ship. MMSI: 273350360.

Date/timePositionNaut miles runAvg speedWind from/ knotsBaromVisibWave heightAir tempDewpointWater temp
2016-Aug-25 12:33N 45°06' E 036°34'0 0.0
2016-Aug-25 11:24N 45°06' E 036°34'0 0.0
2016-Aug-25 10:26N 45°06' E 036°34'1 0.5
2016-Aug-25 09:04N 45°06' E 036°33'0 0.0
2016-Aug-25 08:28N 45°06' E 036°33'1 0.1
2016-Aug-25 00:26N 45°07' E 036°33'6 6.8
2016-Aug-24 23:33N 45°12' E 036°28'7 6.5
2016-Aug-24 22:33N 45°18' E 036°29'6 6.4
2016-Aug-24 21:34N 45°21' E 036°38'7 6.5
2016-Aug-24 20:33N 45°27' E 036°42'3 2.8
2016-Aug-24 19:33N 45°29' E 036°40'  
2016-Aug-20 23:26N 45°52' E 036°60'7 7.7
2016-Aug-20 22:32N 45°46' E 036°56'8 7.7
2016-Aug-20 21:32N 45°38' E 036°52'8 7.7
2016-Aug-20 20:33N 45°32' E 036°46'7 7.5
2016-Aug-20 19:33N 45°25' E 036°41'6 6.4
2016-Aug-20 18:33N 45°20' E 036°36'6 6.3
2016-Aug-20 17:33N 45°17' E 036°29'6 5.5
2016-Aug-20 16:26N 45°10' E 036°30'3 2.2
2016-Aug-20 15:17N 45°10' E 036°33'0 0.0
2016-Aug-20 14:32N 45°10' E 036°33'0 0.0
2016-Aug-20 13:33N 45°10' E 036°33'0 0.0
2016-Aug-20 12:33N 45°10' E 036°33'0 0.0
2016-Aug-20 11:33N 45°10' E 036°33'0 0.0
2016-Aug-20 10:33N 45°10' E 036°33'0 0.0
2016-Aug-20 09:33N 45°10' E 036°33'0 0.0
2016-Aug-20 08:32N 45°10' E 036°33'0 0.0
2016-Aug-20 07:33N 45°10' E 036°33'0 0.0
2016-Aug-20 06:33N 45°10' E 036°33'0 0.1
2016-Aug-20 05:33N 45°10' E 036°33'0 0.0
2016-Aug-20 04:33N 45°10' E 036°33'0 0.0
2016-Aug-20 03:33N 45°10' E 036°33'0 0.0
2016-Aug-20 02:33N 45°10' E 036°33'0 0.0
2016-Aug-20 01:33N 45°10' E 036°33'0 0.0
2016-Aug-20 00:33N 45°10' E 036°33'0 0.0
2016-Aug-19 23:32N 45°10' E 036°33'0 0.0
2016-Aug-19 22:33N 45°10' E 036°33'0 0.0
2016-Aug-19 21:33N 45°10' E 036°33'0 0.0
2016-Aug-19 20:25N 45°10' E 036°33'0 0.0
2016-Aug-19 19:29N 45°10' E 036°33'0 0.0
2016-Aug-19 18:33N 45°10' E 036°33'0 0.0
2016-Aug-19 17:33N 45°10' E 036°33'0 0.0
2016-Aug-19 16:29N 45°10' E 036°33'4 4.5
2016-Aug-19 15:32N 45°12' E 036°28'7 6.7
2016-Aug-19 14:33N 45°18' E 036°29'7 7.1
2016-Aug-19 13:33N 45°21' E 036°38'6 6.4
2016-Aug-19 12:33N 45°27' E 036°42'8 7.9
2016-Aug-19 11:33N 45°34' E 036°46'  

Dump ship's entire track history